sensor_id;sensor_type;location;lat;lon;timestamp;pressure;altitude;pressure_sealevel;temperature;humidity
47811;BME280;33575;52.600;7.318;2024-02-23T00:00:36;98130.83;;;5.20;99.49
47811;BME280;33575;52.600;7.318;2024-02-23T00:03:06;98141.44;;;5.09;99.57
47811;BME280;33575;52.600;7.318;2024-02-23T00:05:37;98153.87;;;5.28;99.27
47811;BME280;33575;52.600;7.318;2024-02-23T00:08:08;98170.41;;;5.21;99.19
47811;BME280;33575;52.600;7.318;2024-02-23T00:10:39;98185.84;;;5.17;99.82
47811;BME280;33575;52.600;7.318;2024-02-23T00:13:09;98193.52;;;5.17;98.61
47811;BME280;33575;52.600;7.318;2024-02-23T00:15:40;98200.02;;;4.87;100.00
47811;BME280;33575;52.600;7.318;2024-02-23T00:18:11;98207.24;;;4.88;100.00
47811;BME280;33575;52.600;7.318;2024-02-23T00:20:41;98216.49;;;4.71;100.00
47811;BME280;33575;52.600;7.318;2024-02-23T00:23:12;98228.83;;;4.77;100.00
47811;BME280;33575;52.600;7.318;2024-02-23T00:25:43;98242.10;;;4.74;100.00
47811;BME280;33575;52.600;7.318;2024-02-23T00:28:14;98257.99;;;4.57;100.00
47811;BME280;33575;52.600;7.318;2024-02-23T00:30:44;98257.68;;;4.49;100.00
47811;BME280;33575;52.600;7.318;2024-02-23T00:33:15;98259.25;;;4.58;100.00
47811;BME280;33575;52.600;7.318;2024-02-23T00:35:46;98267.99;;;4.44;100.00
47811;BME280;33575;52.600;7.318;2024-02-23T00:38:17;98272.29;;;4.55;100.00
47811;BME280;33575;52.600;7.318;2024-02-23T00:40:47;98295.91;;;4.53;100.00
47811;BME280;33575;52.600;7.318;2024-02-23T00:43:19;98301.98;;;4.58;100.00
47811;BME280;33575;52.600;7.318;2024-02-23T00:45:49;98310.56;;;4.54;100.00
47811;BME280;33575;52.600;7.318;2024-02-23T00:48:20;98322.48;;;4.58;100.00
47811;BME280;33575;52.600;7.318;2024-02-23T00:50:50;98326.53;;;4.51;100.00
47811;BME280;33575;52.600;7.318;2024-02-23T00:53:21;98330.18;;;4.47;100.00
47811;BME280;33575;52.600;7.318;2024-02-23T00:55:51;98328.47;;;4.29;100.00
47811;BME280;33575;52.600;7.318;2024-02-23T00:58:22;98349.41;;;4.31;100.00
47811;BME280;33575;52.600;7.318;2024-02-23T01:00:53;98351.42;;;4.24;100.00
47811;BME280;33575;52.600;7.318;2024-02-23T01:03:24;98358.80;;;4.25;100.00
47811;BME280;33575;52.600;7.318;2024-02-23T01:05:54;98373.73;;;4.32;100.00
47811;BME280;33575;52.600;7.318;2024-02-23T01:08:25;98382.59;;;4.27;100.00
47811;BME280;33575;52.600;7.318;2024-02-23T01:10:56;98372.64;;;4.15;100.00
47811;BME280;33575;52.600;7.318;2024-02-23T01:13:27;98390.94;;;4.20;100.00
47811;BME280;33575;52.600;7.318;2024-02-23T01:15:57;98397.33;;;4.25;100.00
47811;BME280;33575;52.600;7.318;2024-02-23T01:18:28;98401.38;;;4.11;100.00
47811;BME280;33575;52.600;7.318;2024-02-23T01:20:59;98411.13;;;4.11;100.00
47811;BME280;33575;52.600;7.318;2024-02-23T01:23:29;98395.98;;;3.97;100.00
47811;BME280;33575;52.600;7.318;2024-02-23T01:26:00;98403.34;;;4.09;100.00
47811;BME280;33575;52.600;7.318;2024-02-23T01:28:31;98405.24;;;4.11;100.00
47811;BME280;33575;52.600;7.318;2024-02-23T01:31:02;98400.10;;;4.12;100.00
47811;BME280;33575;52.600;7.318;2024-02-23T01:33:32;98409.75;;;3.95;100.00
47811;BME280;33575;52.600;7.318;2024-02-23T01:36:04;98423.82;;;3.96;100.00
47811;BME280;33575;52.600;7.318;2024-02-23T01:38:34;98428.46;;;4.06;100.00
47811;BME280;33575;52.600;7.318;2024-02-23T01:41:05;98431.90;;;4.07;100.00
47811;BME280;33575;52.600;7.318;2024-02-23T01:43:35;98439.99;;;4.14;99.92
47811;BME280;33575;52.600;7.318;2024-02-23T01:46:06;98438.16;;;4.10;100.00
47811;BME280;33575;52.600;7.318;2024-02-23T01:48:37;98447.13;;;4.12;99.53
47811;BME280;33575;52.600;7.318;2024-02-23T01:51:08;98454.86;;;4.11;98.99
47811;BME280;33575;52.600;7.318;2024-02-23T01:53:38;98463.12;;;4.18;98.97
47811;BME280;33575;52.600;7.318;2024-02-23T01:56:09;98459.38;;;4.17;99.22
47811;BME280;33575;52.600;7.318;2024-02-23T01:58:40;98459.59;;;4.04;100.00
47811;BME280;33575;52.600;7.318;2024-02-23T02:01:10;98473.52;;;4.13;99.69
47811;BME280;33575;52.600;7.318;2024-02-23T02:03:41;98471.08;;;3.99;100.00
47811;BME280;33575;52.600;7.318;2024-02-23T02:06:12;98471.70;;;4.08;100.00
47811;BME280;33575;52.600;7.318;2024-02-23T02:08:43;98470.95;;;4.03;100.00
47811;BME280;33575;52.600;7.318;2024-02-23T02:11:13;98471.80;;;4.07;100.00
47811;BME280;33575;52.600;7.318;2024-02-23T02:13:44;98473.89;;;4.06;100.00
47811;BME280;33575;52.600;7.318;2024-02-23T02:16:14;98476.81;;;4.06;100.00
47811;BME280;33575;52.600;7.318;2024-02-23T02:18:45;98484.40;;;4.09;100.00
47811;BME280;33575;52.600;7.318;2024-02-23T02:21:16;98491.63;;;4.17;100.00
47811;BME280;33575;52.600;7.318;2024-02-23T02:23:47;98500.80;;;4.21;100.00
47811;BME280;33575;52.600;7.318;2024-02-23T02:26:17;98492.40;;;4.04;100.00
47811;BME280;33575;52.600;7.318;2024-02-23T02:28:48;98498.52;;;4.09;100.00
47811;BME280;33575;52.600;7.318;2024-02-23T02:31:19;98497.07;;;4.13;100.00
47811;BME280;33575;52.600;7.318;2024-02-23T02:33:50;98504.67;;;4.14;100.00
47811;BME280;33575;52.600;7.318;2024-02-23T02:36:20;98506.40;;;4.16;100.00
47811;BME280;33575;52.600;7.318;2024-02-23T02:38:51;98493.96;;;4.12;100.00
47811;BME280;33575;52.600;7.318;2024-02-23T02:41:24;98499.29;;;3.88;100.00
47811;BME280;33575;52.600;7.318;2024-02-23T02:43:53;98507.35;;;3.97;100.00
47811;BME280;33575;52.600;7.318;2024-02-23T02:46:23;98517.48;;;4.05;100.00
47811;BME280;33575;52.600;7.318;2024-02-23T02:48:54;98514.46;;;3.99;100.00
47811;BME280;33575;52.600;7.318;2024-02-23T02:51:25;98513.42;;;3.86;100.00
47811;BME280;33575;52.600;7.318;2024-02-23T02:53:56;98524.44;;;3.95;100.00
47811;BME280;33575;52.600;7.318;2024-02-23T02:56:26;98522.79;;;3.87;100.00
47811;BME280;33575;52.600;7.318;2024-02-23T02:58:57;98534.87;;;3.84;100.00
47811;BME280;33575;52.600;7.318;2024-02-23T03:01:28;98540.03;;;3.82;100.00
47811;BME280;33575;52.600;7.318;2024-02-23T03:03:59;98546.40;;;3.69;100.00
47811;BME280;33575;52.600;7.318;2024-02-23T03:06:30;98548.06;;;3.73;100.00
47811;BME280;33575;52.600;7.318;2024-02-23T03:09:00;98538.35;;;3.67;100.00
47811;BME280;33575;52.600;7.318;2024-02-23T03:11:31;98552.86;;;3.69;100.00
47811;BME280;33575;52.600;7.318;2024-02-23T03:14:02;98565.54;;;3.76;99.82
47811;BME280;33575;52.600;7.318;2024-02-23T03:16:32;98568.20;;;3.70;99.95
47811;BME280;33575;52.600;7.318;2024-02-23T03:19:03;98560.83;;;3.44;100.00
47811;BME280;33575;52.600;7.318;2024-02-23T03:21:36;98570.06;;;3.35;100.00
47811;BME280;33575;52.600;7.318;2024-02-23T03:24:05;98571.03;;;3.51;99.67
47811;BME280;33575;52.600;7.318;2024-02-23T03:26:35;98557.54;;;3.40;100.00
47811;BME280;33575;52.600;7.318;2024-02-23T03:29:06;98553.23;;;3.40;99.98
47811;BME280;33575;52.600;7.318;2024-02-23T03:31:37;98573.46;;;3.44;99.54
47811;BME280;33575;52.600;7.318;2024-02-23T03:34:08;98585.62;;;3.42;99.30
47811;BME280;33575;52.600;7.318;2024-02-23T03:36:38;98584.52;;;3.49;99.21
47811;BME280;33575;52.600;7.318;2024-02-23T03:39:09;98578.44;;;3.50;99.03
47811;BME280;33575;52.600;7.318;2024-02-23T03:41:41;98578.23;;;3.43;99.73
47811;BME280;33575;52.600;7.318;2024-02-23T03:44:11;98581.39;;;3.50;99.45
47811;BME280;33575;52.600;7.318;2024-02-23T03:46:42;98582.29;;;3.54;99.34
47811;BME280;33575;52.600;7.318;2024-02-23T03:49:12;98589.94;;;3.43;100.00
47811;BME280;33575;52.600;7.318;2024-02-23T03:51:43;98590.01;;;3.57;100.00
47811;BME280;33575;52.600;7.318;2024-02-23T03:54:14;98594.31;;;3.77;100.00
47811;BME280;33575;52.600;7.318;2024-02-23T03:56:44;98601.81;;;3.74;99.46
47811;BME280;33575;52.600;7.318;2024-02-23T03:59:15;98609.90;;;3.70;99.21
47811;BME280;33575;52.600;7.318;2024-02-23T04:01:46;98612.67;;;3.67;98.72
47811;BME280;33575;52.600;7.318;2024-02-23T04:04:17;98613.79;;;3.65;98.73
47811;BME280;33575;52.600;7.318;2024-02-23T04:06:47;98613.35;;;3.57;98.55
47811;BME280;33575;52.600;7.318;2024-02-23T04:09:18;98620.49;;;3.55;99.47
47811;BME280;33575;52.600;7.318;2024-02-23T04:11:49;98616.53;;;3.52;99.77
47811;BME280;33575;52.600;7.318;2024-02-23T04:14:20;98617.51;;;3.51;100.00
47811;BME280;33575;52.600;7.318;2024-02-23T04:16:51;98619.16;;;3.37;100.00
47811;BME280;33575;52.600;7.318;2024-02-23T04:19:21;98619.90;;;3.54;100.00
47811;BME280;33575;52.600;7.318;2024-02-23T04:21:52;98623.16;;;3.58;100.00
47811;BME280;33575;52.600;7.318;2024-02-23T04:24:26;98622.69;;;3.50;100.00
47811;BME280;33575;52.600;7.318;2024-02-23T04:26:54;98624.82;;;3.65;100.00
47811;BME280;33575;52.600;7.318;2024-02-23T04:29:24;98630.95;;;3.74;100.00
47811;BME280;33575;52.600;7.318;2024-02-23T04:31:55;98636.22;;;3.65;100.00
47811;BME280;33575;52.600;7.318;2024-02-23T04:34:26;98640.78;;;3.76;100.00
47811;BME280;33575;52.600;7.318;2024-02-23T04:36:57;98639.92;;;3.77;100.00
47811;BME280;33575;52.600;7.318;2024-02-23T04:39:27;98637.97;;;3.79;100.00
47811;BME280;33575;52.600;7.318;2024-02-23T04:41:58;98644.10;;;3.80;100.00
47811;BME280;33575;52.600;7.318;2024-02-23T04:44:29;98635.43;;;3.79;100.00
47811;BME280;33575;52.600;7.318;2024-02-23T04:46:59;98628.25;;;3.69;100.00
47811;BME280;33575;52.600;7.318;2024-02-23T04:49:30;98630.56;;;3.69;100.00
47811;BME280;33575;52.600;7.318;2024-02-23T04:52:01;98643.86;;;3.65;100.00
47811;BME280;33575;52.600;7.318;2024-02-23T04:54:31;98650.42;;;3.56;100.00
47811;BME280;33575;52.600;7.318;2024-02-23T04:57:02;98654.68;;;3.66;100.00
47811;BME280;33575;52.600;7.318;2024-02-23T04:59:33;98662.54;;;3.71;100.00
47811;BME280;33575;52.600;7.318;2024-02-23T05:02:04;98671.05;;;3.74;100.00
47811;BME280;33575;52.600;7.318;2024-02-23T05:04:34;98679.22;;;3.71;100.00
47811;BME280;33575;52.600;7.318;2024-02-23T05:07:05;98674.58;;;3.69;100.00
47811;BME280;33575;52.600;7.318;2024-02-23T05:09:36;98676.16;;;3.72;100.00
47811;BME280;33575;52.600;7.318;2024-02-23T05:12:08;98680.63;;;3.84;99.97
47811;BME280;33575;52.600;7.318;2024-02-23T05:14:38;98689.51;;;3.86;99.60
47811;BME280;33575;52.600;7.318;2024-02-23T05:17:08;98691.90;;;3.78;100.00
47811;BME280;33575;52.600;7.318;2024-02-23T05:19:39;98695.80;;;3.88;99.78
47811;BME280;33575;52.600;7.318;2024-02-23T05:22:10;98702.06;;;3.87;99.25
47811;BME280;33575;52.600;7.318;2024-02-23T05:24:40;98701.39;;;3.87;99.19
47811;BME280;33575;52.600;7.318;2024-02-23T05:27:11;98712.65;;;3.74;100.00
47811;BME280;33575;52.600;7.318;2024-02-23T05:29:42;98715.37;;;3.75;100.00
47811;BME280;33575;52.600;7.318;2024-02-23T05:32:13;98716.20;;;3.84;99.73
47811;BME280;33575;52.600;7.318;2024-02-23T05:34:43;98714.76;;;3.84;99.67
47811;BME280;33575;52.600;7.318;2024-02-23T05:37:14;98721.94;;;3.91;99.85
47811;BME280;33575;52.600;7.318;2024-02-23T05:39:48;98718.32;;;3.85;100.00
47811;BME280;33575;52.600;7.318;2024-02-23T05:42:16;98722.37;;;3.91;99.72
47811;BME280;33575;52.600;7.318;2024-02-23T05:44:47;98724.00;;;3.95;99.72
47811;BME280;33575;52.600;7.318;2024-02-23T05:47:17;98728.08;;;3.96;99.25
47811;BME280;33575;52.600;7.318;2024-02-23T05:49:49;98726.49;;;3.98;99.71
47811;BME280;33575;52.600;7.318;2024-02-23T05:52:18;98735.12;;;3.98;99.72
47811;BME280;33575;52.600;7.318;2024-02-23T05:54:53;98738.23;;;3.97;99.41
47811;BME280;33575;52.600;7.318;2024-02-23T05:57:20;98739.18;;;3.99;99.40
47811;BME280;33575;52.600;7.318;2024-02-23T05:59:50;98744.02;;;4.07;98.80
47811;BME280;33575;52.600;7.318;2024-02-23T06:02:21;98744.31;;;3.99;98.96
47811;BME280;33575;52.600;7.318;2024-02-23T06:04:52;98744.77;;;4.10;99.07
47811;BME280;33575;52.600;7.318;2024-02-23T06:07:23;98746.09;;;3.92;99.29
47811;BME280;33575;52.600;7.318;2024-02-23T06:09:54;98746.27;;;3.99;98.86
47811;BME280;33575;52.600;7.318;2024-02-23T06:12:24;98748.63;;;4.02;98.93
47811;BME280;33575;52.600;7.318;2024-02-23T06:14:55;98746.92;;;4.04;99.65
47811;BME280;33575;52.600;7.318;2024-02-23T06:17:25;98746.32;;;4.02;98.45
47811;BME280;33575;52.600;7.318;2024-02-23T06:19:56;98748.02;;;4.16;97.96
47811;BME280;33575;52.600;7.318;2024-02-23T06:22:27;98751.12;;;4.20;97.40
47811;BME280;33575;52.600;7.318;2024-02-23T06:24:57;98751.81;;;4.29;97.27
47811;BME280;33575;52.600;7.318;2024-02-23T06:27:28;98761.50;;;4.18;97.37
47811;BME280;33575;52.600;7.318;2024-02-23T06:29:59;98760.59;;;4.16;97.62
47811;BME280;33575;52.600;7.318;2024-02-23T06:32:30;98768.69;;;4.25;97.60
47811;BME280;33575;52.600;7.318;2024-02-23T06:35:02;98758.48;;;4.06;97.73
47811;BME280;33575;52.600;7.318;2024-02-23T06:37:31;98775.93;;;4.12;97.94
47811;BME280;33575;52.600;7.318;2024-02-23T06:40:02;98771.95;;;4.07;97.57
47811;BME280;33575;52.600;7.318;2024-02-23T06:42:33;98776.73;;;3.99;98.09
47811;BME280;33575;52.600;7.318;2024-02-23T06:45:04;98778.46;;;4.05;97.89
47811;BME280;33575;52.600;7.318;2024-02-23T06:47:34;98781.68;;;3.99;98.33
47811;BME280;33575;52.600;7.318;2024-02-23T06:50:06;98780.20;;;3.93;98.24
47811;BME280;33575;52.600;7.318;2024-02-23T06:52:35;98781.50;;;3.84;99.49
47811;BME280;33575;52.600;7.318;2024-02-23T06:55:06;98785.65;;;3.80;99.16
47811;BME280;33575;52.600;7.318;2024-02-23T06:57:37;98788.00;;;3.85;99.40
47811;BME280;33575;52.600;7.318;2024-02-23T07:00:09;98788.00;;;3.97;98.58
47811;BME280;33575;52.600;7.318;2024-02-23T07:02:38;98792.92;;;3.88;98.72
47811;BME280;33575;52.600;7.318;2024-02-23T07:05:09;98796.89;;;3.91;99.38
47811;BME280;33575;52.600;7.318;2024-02-23T07:07:40;98803.68;;;4.03;99.09
47811;BME280;33575;52.600;7.318;2024-02-23T07:10:10;98801.67;;;3.99;98.54
47811;BME280;33575;52.600;7.318;2024-02-23T07:12:41;98807.05;;;4.03;99.31
47811;BME280;33575;52.600;7.318;2024-02-23T07:15:12;98804.31;;;4.10;98.92
47811;BME280;33575;52.600;7.318;2024-02-23T07:17:44;98796.80;;;4.01;99.00
47811;BME280;33575;52.600;7.318;2024-02-23T07:20:14;98805.02;;;4.05;99.05
47811;BME280;33575;52.600;7.318;2024-02-23T07:22:44;98801.13;;;4.12;98.82
47811;BME280;33575;52.600;7.318;2024-02-23T07:25:16;98802.08;;;4.24;98.39
47811;BME280;33575;52.600;7.318;2024-02-23T07:27:46;98803.33;;;4.14;98.39
47811;BME280;33575;52.600;7.318;2024-02-23T07:30:17;98791.66;;;4.07;98.80
47811;BME280;33575;52.600;7.318;2024-02-23T07:32:51;98801.14;;;4.28;98.01
47811;BME280;33575;52.600;7.318;2024-02-23T07:35:18;98800.40;;;4.30;97.81
47811;BME280;33575;52.600;7.318;2024-02-23T07:37:48;98801.85;;;4.33;97.19
47811;BME280;33575;52.600;7.318;2024-02-23T07:40:23;98806.21;;;4.28;96.92
47811;BME280;33575;52.600;7.318;2024-02-23T07:42:50;98806.52;;;4.44;97.42
47811;BME280;33575;52.600;7.318;2024-02-23T07:45:20;98802.58;;;4.44;96.82
47811;BME280;33575;52.600;7.318;2024-02-23T07:47:51;98806.71;;;4.52;97.11
47811;BME280;33575;52.600;7.318;2024-02-23T07:50:22;98808.61;;;4.62;96.84
47811;BME280;33575;52.600;7.318;2024-02-23T07:52:53;98798.93;;;4.56;96.26
47811;BME280;33575;52.600;7.318;2024-02-23T07:55:23;98799.14;;;4.64;96.68
47811;BME280;33575;52.600;7.318;2024-02-23T07:57:54;98800.44;;;4.70;96.80
47811;BME280;33575;52.600;7.318;2024-02-23T08:00:28;98801.95;;;4.55;96.33
47811;BME280;33575;52.600;7.318;2024-02-23T08:02:55;98796.24;;;4.57;95.77
47811;BME280;33575;52.600;7.318;2024-02-23T08:05:26;98800.37;;;4.66;95.78
47811;BME280;33575;52.600;7.318;2024-02-23T08:07:57;98803.27;;;4.64;97.39
47811;BME280;33575;52.600;7.318;2024-02-23T08:10:27;98807.74;;;4.72;96.66
47811;BME280;33575;52.600;7.318;2024-02-23T08:12:59;98806.63;;;4.78;96.57
47811;BME280;33575;52.600;7.318;2024-02-23T08:15:29;98799.90;;;4.81;96.37
47811;BME280;33575;52.600;7.318;2024-02-23T08:18:00;98807.25;;;4.94;95.95
47811;BME280;33575;52.600;7.318;2024-02-23T08:20:30;98808.95;;;4.95;95.87
47811;BME280;33575;52.600;7.318;2024-02-23T08:23:00;98812.05;;;5.02;94.95
47811;BME280;33575;52.600;7.318;2024-02-23T08:25:31;98808.63;;;4.94;94.76
47811;BME280;33575;52.600;7.318;2024-02-23T08:28:02;98812.65;;;4.84;95.36
47811;BME280;33575;52.600;7.318;2024-02-23T08:30:33;98814.07;;;4.79;95.43
47811;BME280;33575;52.600;7.318;2024-02-23T08:33:04;98814.77;;;4.94;95.50
47811;BME280;33575;52.600;7.318;2024-02-23T08:35:35;98813.14;;;4.98;95.51
47811;BME280;33575;52.600;7.318;2024-02-23T08:38:05;98812.29;;;5.02;95.00
47811;BME280;33575;52.600;7.318;2024-02-23T08:40:36;98807.10;;;5.12;94.36
47811;BME280;33575;52.600;7.318;2024-02-23T08:43:07;98804.23;;;5.16;94.63
47811;BME280;33575;52.600;7.318;2024-02-23T08:45:37;98805.68;;;5.30;94.53
47811;BME280;33575;52.600;7.318;2024-02-23T08:48:08;98795.71;;;5.32;94.36
47811;BME280;33575;52.600;7.318;2024-02-23T08:50:39;98791.82;;;5.42;93.97
47811;BME280;33575;52.600;7.318;2024-02-23T08:53:10;98789.40;;;5.58;94.31
47811;BME280;33575;52.600;7.318;2024-02-23T08:55:40;98795.91;;;5.59;94.79
47811;BME280;33575;52.600;7.318;2024-02-23T08:58:11;98783.47;;;5.77;93.78
47811;BME280;33575;52.600;7.318;2024-02-23T09:00:42;98785.15;;;5.76;93.55
47811;BME280;33575;52.600;7.318;2024-02-23T09:03:12;98784.25;;;5.90;92.82
47811;BME280;33575;52.600;7.318;2024-02-23T09:05:43;98782.30;;;5.94;93.46
47811;BME280;33575;52.600;7.318;2024-02-23T09:08:14;98772.94;;;5.89;92.26
47811;BME280;33575;52.600;7.318;2024-02-23T09:10:44;98770.77;;;5.92;93.57
47811;BME280;33575;52.600;7.318;2024-02-23T09:13:15;98769.22;;;5.77;91.27
47811;BME280;33575;52.600;7.318;2024-02-23T09:15:46;98782.83;;;5.80;91.15
47811;BME280;33575;52.600;7.318;2024-02-23T09:18:16;98773.08;;;5.69;91.00
47811;BME280;33575;52.600;7.318;2024-02-23T09:20:47;98775.05;;;5.66;91.96
47811;BME280;33575;52.600;7.318;2024-02-23T09:23:18;98788.97;;;5.69;91.81
47811;BME280;33575;52.600;7.318;2024-02-23T09:25:48;98791.68;;;5.82;91.19
47811;BME280;33575;52.600;7.318;2024-02-23T09:28:19;98786.51;;;5.66;90.64
47811;BME280;33575;52.600;7.318;2024-02-23T09:30:50;98800.05;;;5.70;90.56
47811;BME280;33575;52.600;7.318;2024-02-23T09:33:20;98808.35;;;5.83;90.34
47811;BME280;33575;52.600;7.318;2024-02-23T09:35:51;98817.78;;;5.68;90.32
47811;BME280;33575;52.600;7.318;2024-02-23T09:38:22;98816.64;;;5.71;90.15
47811;BME280;33575;52.600;7.318;2024-02-23T09:40:52;98817.69;;;5.79;89.28
47811;BME280;33575;52.600;7.318;2024-02-23T09:43:27;98819.76;;;5.85;90.43
47811;BME280;33575;52.600;7.318;2024-02-23T09:45:54;98817.26;;;5.84;89.62
47811;BME280;33575;52.600;7.318;2024-02-23T09:48:25;98808.23;;;5.83;89.43
47811;BME280;33575;52.600;7.318;2024-02-23T09:50:55;98810.84;;;5.88;89.34
47811;BME280;33575;52.600;7.318;2024-02-23T09:53:26;98814.42;;;5.93;88.27
47811;BME280;33575;52.600;7.318;2024-02-23T09:55:58;98822.07;;;6.07;88.36
47811;BME280;33575;52.600;7.318;2024-02-23T09:58:27;98823.24;;;5.83;89.32
47811;BME280;33575;52.600;7.318;2024-02-23T10:00:58;98814.95;;;5.97;88.99
47811;BME280;33575;52.600;7.318;2024-02-23T10:03:29;98831.21;;;5.96;88.97
47811;BME280;33575;52.600;7.318;2024-02-23T10:06:00;98832.62;;;5.96;88.93
47811;BME280;33575;52.600;7.318;2024-02-23T10:08:30;98836.97;;;6.01;89.36
47811;BME280;33575;52.600;7.318;2024-02-23T10:11:00;98827.20;;;6.09;89.59
47811;BME280;33575;52.600;7.318;2024-02-23T10:13:31;98829.85;;;5.99;88.53
47811;BME280;33575;52.600;7.318;2024-02-23T10:16:06;98847.72;;;6.01;89.19
47811;BME280;33575;52.600;7.318;2024-02-23T10:18:32;98848.42;;;6.13;88.94
47811;BME280;33575;52.600;7.318;2024-02-23T10:21:03;98846.57;;;5.86;88.39
47811;BME280;33575;52.600;7.318;2024-02-23T10:23:38;98850.13;;;6.01;89.69
47811;BME280;33575;52.600;7.318;2024-02-23T10:26:04;98855.46;;;6.00;88.80
47811;BME280;33575;52.600;7.318;2024-02-23T10:28:34;98852.59;;;5.94;87.36
47811;BME280;33575;52.600;7.318;2024-02-23T10:31:05;98845.78;;;5.87;87.54
47811;BME280;33575;52.600;7.318;2024-02-23T10:33:36;98860.83;;;6.04;88.36
47811;BME280;33575;52.600;7.318;2024-02-23T10:36:07;98857.79;;;5.77;87.62
47811;BME280;33575;52.600;7.318;2024-02-23T10:38:38;98858.02;;;5.81;87.91
47811;BME280;33575;52.600;7.318;2024-02-23T10:41:09;98859.20;;;5.88;87.43
47811;BME280;33575;52.600;7.318;2024-02-23T10:43:41;98864.75;;;5.84;87.73
47811;BME280;33575;52.600;7.318;2024-02-23T10:46:09;98864.62;;;5.90;87.34
47811;BME280;33575;52.600;7.318;2024-02-23T10:48:41;98856.13;;;5.87;87.66
47811;BME280;33575;52.600;7.318;2024-02-23T10:51:13;98864.24;;;5.70;87.25
47811;BME280;33575;52.600;7.318;2024-02-23T10:53:41;98861.08;;;5.77;86.43
47811;BME280;33575;52.600;7.318;2024-02-23T10:56:12;98863.92;;;5.74;87.56
47811;BME280;33575;52.600;7.318;2024-02-23T10:58:42;98865.97;;;5.74;87.44
47811;BME280;33575;52.600;7.318;2024-02-23T11:01:14;98867.20;;;5.87;87.74
47811;BME280;33575;52.600;7.318;2024-02-23T11:03:45;98870.55;;;5.90;87.22
47811;BME280;33575;52.600;7.318;2024-02-23T11:06:15;98878.10;;;5.83;87.83
47811;BME280;33575;52.600;7.318;2024-02-23T11:08:45;98889.08;;;5.74;88.51
47811;BME280;33575;52.600;7.318;2024-02-23T11:11:16;98885.51;;;5.80;88.09
47811;BME280;33575;52.600;7.318;2024-02-23T11:13:46;98880.76;;;5.91;87.59
47811;BME280;33575;52.600;7.318;2024-02-23T11:16:22;98879.48;;;5.67;87.76
47811;BME280;33575;52.600;7.318;2024-02-23T11:18:47;98879.71;;;5.86;87.50
47811;BME280;33575;52.600;7.318;2024-02-23T11:21:20;98872.46;;;5.80;87.67
47811;BME280;33575;52.600;7.318;2024-02-23T11:23:49;98876.84;;;5.80;88.16
47811;BME280;33575;52.600;7.318;2024-02-23T11:26:23;98866.99;;;5.84;88.44
47811;BME280;33575;52.600;7.318;2024-02-23T11:28:51;98873.68;;;5.96;88.41
47811;BME280;33575;52.600;7.318;2024-02-23T11:31:22;98870.76;;;5.96;88.41
47811;BME280;33575;52.600;7.318;2024-02-23T11:33:53;98861.19;;;5.97;87.78
47811;BME280;33575;52.600;7.318;2024-02-23T11:36:23;98864.71;;;6.04;88.46
47811;BME280;33575;52.600;7.318;2024-02-23T11:38:53;98862.98;;;6.14;88.40
47811;BME280;33575;52.600;7.318;2024-02-23T11:41:24;98868.78;;;6.16;88.73
47811;BME280;33575;52.600;7.318;2024-02-23T11:43:55;98871.71;;;6.27;90.05
47811;BME280;33575;52.600;7.318;2024-02-23T11:46:24;98872.31;;;6.32;88.62
47811;BME280;33575;52.600;7.318;2024-02-23T11:48:55;98878.38;;;6.27;88.60
47811;BME280;33575;52.600;7.318;2024-02-23T11:51:26;98887.03;;;6.17;90.81
47811;BME280;33575;52.600;7.318;2024-02-23T11:53:57;98881.52;;;5.98;92.03
47811;BME280;33575;52.600;7.318;2024-02-23T11:56:28;98893.01;;;6.09;92.49
47811;BME280;33575;52.600;7.318;2024-02-23T11:58:58;98897.98;;;5.83;92.88
47811;BME280;33575;52.600;7.318;2024-02-23T12:01:29;98891.29;;;5.83;93.50
47811;BME280;33575;52.600;7.318;2024-02-23T12:03:59;98892.86;;;5.58;93.28
47811;BME280;33575;52.600;7.318;2024-02-23T12:06:30;98901.34;;;5.61;94.48
47811;BME280;33575;52.600;7.318;2024-02-23T12:09:01;98908.86;;;5.61;96.07
47811;BME280;33575;52.600;7.318;2024-02-23T12:11:31;98909.74;;;5.56;95.87
47811;BME280;33575;52.600;7.318;2024-02-23T12:14:02;98908.55;;;5.49;96.56
47811;BME280;33575;52.600;7.318;2024-02-23T12:16:33;98892.35;;;5.29;97.59
47811;BME280;33575;52.600;7.318;2024-02-23T12:19:03;98901.69;;;5.42;97.03
47811;BME280;33575;52.600;7.318;2024-02-23T12:21:34;98909.90;;;5.50;98.02
47811;BME280;33575;52.600;7.318;2024-02-23T12:24:05;98909.48;;;5.47;98.88
47811;BME280;33575;52.600;7.318;2024-02-23T12:26:35;98915.71;;;5.52;99.09
47811;BME280;33575;52.600;7.318;2024-02-23T12:29:06;98918.86;;;5.60;99.05
47811;BME280;33575;52.600;7.318;2024-02-23T12:31:36;98923.74;;;5.53;98.73
47811;BME280;33575;52.600;7.318;2024-02-23T12:34:11;98931.54;;;5.60;99.54
47811;BME280;33575;52.600;7.318;2024-02-23T12:36:39;98936.22;;;5.52;99.81
47811;BME280;33575;52.600;7.318;2024-02-23T12:39:08;98937.61;;;5.68;99.04
47811;BME280;33575;52.600;7.318;2024-02-23T12:41:39;98935.78;;;5.71;99.10
47811;BME280;33575;52.600;7.318;2024-02-23T12:44:10;98946.88;;;5.76;99.36
47811;BME280;33575;52.600;7.318;2024-02-23T12:46:40;98941.43;;;5.66;100.00
47811;BME280;33575;52.600;7.318;2024-02-23T12:49:11;98938.45;;;5.70;100.00
47811;BME280;33575;52.600;7.318;2024-02-23T12:51:42;98943.29;;;5.73;99.73
47811;BME280;33575;52.600;7.318;2024-02-23T12:54:12;98948.07;;;5.60;100.00
47811;BME280;33575;52.600;7.318;2024-02-23T12:56:43;98944.28;;;5.61;99.88
47811;BME280;33575;52.600;7.318;2024-02-23T12:59:14;98943.70;;;5.59;99.97
47811;BME280;33575;52.600;7.318;2024-02-23T13:01:48;98946.15;;;5.47;100.00
47811;BME280;33575;52.600;7.318;2024-02-23T13:04:15;98930.92;;;5.39;100.00
47811;BME280;33575;52.600;7.318;2024-02-23T13:06:46;98932.52;;;5.43;100.00
47811;BME280;33575;52.600;7.318;2024-02-23T13:09:17;98929.90;;;5.59;100.00
47811;BME280;33575;52.600;7.318;2024-02-23T13:11:48;98933.02;;;5.49;100.00
47811;BME280;33575;52.600;7.318;2024-02-23T13:14:18;98934.64;;;5.66;100.00
47811;BME280;33575;52.600;7.318;2024-02-23T13:16:49;98934.79;;;5.63;100.00
47811;BME280;33575;52.600;7.318;2024-02-23T13:19:19;98937.31;;;5.61;99.42
47811;BME280;33575;52.600;7.318;2024-02-23T13:21:50;98937.89;;;5.63;100.00
47811;BME280;33575;52.600;7.318;2024-02-23T13:24:21;98933.69;;;5.65;100.00